Time;durP1;ratioP1;P1;durP2;ratioP2;P2;SDS_P1;SDS_P2;PMS_P1;PMS_P2;Temp;Humidity;BMP_temperature;BMP_pressure;BME280_temperature;BME280_humidity;BME280_pressure;Samples;Min_cycle;Max_cycle;Signal;HPM_P1;HPM_P2
2022/02/19 16:55:17;;;;;;;2.40;1.70;;;6.20;99.90;;;;;;5064836;27;20646;-78
2022/02/19 16:57:44;;;;;;;2.63;1.53;;;6.20;99.90;;;;;;5051240;27;20204;-78
2022/02/19 17:00:12;;;;;;;4.30;1.37;;;6.10;99.90;;;;;;5045097;27;20232;-79
2022/02/19 17:02:39;;;;;;;4.50;1.87;;;6.10;99.90;;;;;;5022672;28;20292;-79
2022/02/19 17:05:06;;;;;;;5.40;3.43;;;6.10;99.90;;;;;;5036412;27;20237;-79
2022/02/19 17:07:33;;;;;;;4.23;2.20;;;6.20;99.90;;;;;;5025762;28;20253;-79
2022/02/19 17:09:59;;;;;;;4.27;1.93;;;6.10;99.90;;;;;;5030653;28;20250;-79
2022/02/19 17:12:27;;;;;;;2.80;1.80;;;6.20;99.90;;;;;;5021287;28;20240;-82
2022/02/19 17:14:54;;;;;;;3.70;1.77;;;6.10;99.90;;;;;;5017489;28;20261;-79
2022/02/19 17:17:22;;;;;;;3.13;1.13;;;6.10;99.90;;;;;;5103552;28;20292;-78
2022/02/19 17:19:48;;;;;;;5.63;1.63;;;6.20;99.90;;;;;;5042329;27;20343;-78
2022/02/19 17:22:15;;;;;;;3.17;1.60;;;6.10;99.90;;;;;;5019714;28;20213;-79
2022/02/19 17:24:42;;;;;;;3.10;1.37;;;6.10;99.90;;;;;;5019578;28;20213;-79
2022/02/19 17:27:09;;;;;;;3.83;1.53;;;6.10;99.90;;;;;;5013601;28;20209;-79
2022/02/19 17:29:36;;;;;;;4.50;1.70;;;6.00;99.90;;;;;;5020686;28;20727;-77
2022/02/19 17:32:06;;;;;;;1.53;1.30;;;6.00;99.90;;;;;;5017614;28;20243;-77
2022/02/19 17:34:33;;;;;;;3.30;1.50;;;6.10;99.90;;;;;;5024462;28;20240;-77
2022/02/19 17:37:01;;;;;;;2.77;1.43;;;6.10;99.90;;;;;;5018903;28;20236;-78
2022/02/19 17:39:28;;;;;;;3.40;2.30;;;6.10;99.90;;;;;;5106888;28;20233;-77
2022/02/19 17:41:54;;;;;;;4.20;1.40;;;6.10;99.90;;;;;;5021468;28;20205;-79
2022/02/19 17:44:21;;;;;;;2.20;1.37;;;6.10;99.90;;;;;;5019839;28;20212;-79
2022/02/19 17:46:50;;;;;;;3.03;1.57;;;6.10;99.90;;;;;;5057002;28;20262;-80
2022/02/19 17:49:17;;;;;;;2.50;1.40;;;6.10;99.90;;;;;;5026148;28;20205;-80
2022/02/19 17:51:44;;;;;;;4.67;2.43;;;6.10;99.90;;;;;;5111625;28;20193;-80
2022/02/19 17:54:10;;;;;;;4.20;2.47;;;6.00;99.90;;;;;;5026550;28;20772;-80
2022/02/19 17:56:37;;;;;;;2.70;1.43;;;6.00;99.90;;;;;;5019025;28;20217;-79
2022/02/19 17:59:04;;;;;;;4.50;2.30;;;6.00;99.90;;;;;;5030700;28;20718;-80
2022/02/19 18:01:31;;;;;;;7.87;1.93;;;6.00;99.90;;;;;;5026795;28;20205;-79
2022/02/19 18:03:59;;;;;;;3.13;2.10;;;5.90;99.90;;;;;;5021557;28;20278;-78
2022/02/19 18:06:28;;;;;;;5.77;1.87;;;5.90;99.90;;;;;;5014115;28;20201;-78
2022/02/19 18:08:54;;;;;;;3.33;2.03;;;5.90;99.90;;;;;;5012196;28;20293;-77
2022/02/19 18:11:21;;;;;;;3.73;1.80;;;5.90;99.90;;;;;;5008552;28;20206;-78
2022/02/19 18:13:48;;;;;;;2.97;1.80;;;5.90;99.90;;;;;;5008101;28;20229;-79
2022/02/19 18:16:15;;;;;;;3.57;1.70;;;5.90;99.90;;;;;;5008390;28;20210;-78
2022/02/19 18:18:41;;;;;;;3.93;1.57;;;5.80;99.90;;;;;;5011859;28;20210;-78
2022/02/19 18:21:09;;;;;;;2.13;1.33;;;5.80;99.90;;;;;;5007464;28;20315;-79
2022/02/19 18:23:36;;;;;;;2.53;1.73;;;5.80;99.90;;;;;;5008013;28;20255;-78
2022/02/19 18:26:12;;;;;;;2.17;1.90;;;5.80;99.90;;;;;;5012524;28;20267;-79
2022/02/19 18:28:39;;;;;;;4.40;2.40;;;5.80;99.90;;;;;;5006990;28;20250;-78
2022/02/19 18:31:08;;;;;;;4.20;2.13;;;5.70;99.90;;;;;;5014811;28;20713;-78
2022/02/19 18:33:35;;;;;;;4.00;1.67;;;5.70;99.90;;;;;;5007379;28;20237;-78
2022/02/19 18:36:01;;;;;;;3.50;1.90;;;5.70;99.90;;;;;;5011926;28;20258;-78
2022/02/19 18:38:32;;;;;;;4.33;1.80;;;5.60;99.90;;;;;;5008256;28;20210;-78
2022/02/19 18:40:58;;;;;;;4.37;1.73;;;5.60;99.90;;;;;;5013033;28;20277;-78
2022/02/19 18:43:25;;;;;;;2.53;1.63;;;5.60;99.90;;;;;;5017691;28;20231;-78
2022/02/19 18:45:51;;;;;;;1.97;1.73;;;5.60;99.90;;;;;;5007788;28;20206;-78
2022/02/19 18:48:19;;;;;;;5.60;1.70;;;5.60;99.90;;;;;;5014880;28;20251;-79
2022/02/19 18:50:47;;;;;;;3.27;1.60;;;5.50;99.90;;;;;;5006810;28;20699;-79
2022/02/19 18:53:14;;;;;;;2.77;1.63;;;5.60;99.90;;;;;;5006589;28;20609;-79
2022/02/19 18:55:42;;;;;;;6.77;1.70;;;5.70;99.90;;;;;;5008251;28;20778;-78
2022/02/19 18:58:09;;;;;;;2.00;1.50;;;5.70;99.90;;;;;;5007392;28;20251;-78
2022/02/19 19:00:36;;;;;;;4.07;1.87;;;5.60;99.90;;;;;;5024045;28;20259;-78
2022/02/19 19:03:06;;;;;;;1.97;1.20;;;5.60;99.90;;;;;;5004455;28;20671;-79
2022/02/19 19:05:33;;;;;;;3.27;1.57;;;5.60;99.90;;;;;;5011495;28;20213;-79
2022/02/19 19:08:01;;;;;;;5.70;1.60;;;5.60;99.90;;;;;;5011965;28;20210;-79
2022/02/19 19:10:28;;;;;;;3.67;1.40;;;5.60;99.90;;;;;;5002840;28;20209;-79
2022/02/19 19:12:57;;;;;;;3.83;1.57;;;5.60;99.90;;;;;;4998616;28;20734;-79
2022/02/19 19:15:23;;;;;;;5.23;1.70;;;5.60;99.90;;;;;;5000399;28;20810;-79
2022/02/19 19:17:50;;;;;;;2.13;1.40;;;5.60;99.90;;;;;;4999211;28;20717;-79
2022/02/19 19:20:17;;;;;;;5.80;1.90;;;5.60;99.90;;;;;;5001223;28;20206;-79
2022/02/19 19:22:43;;;;;;;3.93;1.40;;;5.60;99.90;;;;;;5000585;28;20205;-80
2022/02/19 19:25:10;;;;;;;4.87;2.10;;;5.60;99.90;;;;;;4999221;28;20211;-77
2022/02/19 19:27:37;;;;;;;2.97;1.73;;;5.60;99.90;;;;;;5002523;28;20320;-78
2022/02/19 19:30:08;;;;;;;5.43;1.80;;;5.60;99.90;;;;;;4998627;28;20305;-79
2022/02/19 19:32:34;;;;;;;3.60;1.93;;;5.50;99.90;;;;;;5002125;28;20214;-79
2022/02/19 19:35:01;;;;;;;4.00;1.77;;;5.40;99.90;;;;;;4999200;28;20269;-78
2022/02/19 19:37:29;;;;;;;5.03;1.93;;;5.40;99.90;;;;;;5000434;28;20236;-78
2022/02/19 19:39:56;;;;;;;3.40;1.80;;;5.50;99.90;;;;;;5001428;28;20209;-78
2022/02/19 19:42:23;;;;;;;4.90;1.80;;;5.40;99.90;;;;;;4999183;28;20218;-78
2022/02/19 19:44:49;;;;;;;2.67;1.67;;;5.40;99.90;;;;;;5001167;28;20268;-78
2022/02/19 19:47:17;;;;;;;2.97;1.50;;;5.30;99.90;;;;;;5000927;28;20613;-77
2022/02/19 19:49:44;;;;;;;2.27;1.60;;;5.30;99.90;;;;;;4999325;28;20616;-78
2022/02/19 19:52:10;;;;;;;2.47;1.40;;;5.20;99.90;;;;;;5001217;28;20210;-78
2022/02/19 19:54:37;;;;;;;6.17;1.60;;;5.20;99.90;;;;;;4998527;28;20336;-78
2022/02/19 19:57:05;;;;;;;2.67;1.30;;;5.20;99.90;;;;;;5000899;28;20337;-77
2022/02/19 19:59:37;;;;;;;3.40;1.60;;;5.20;99.90;;;;;;4999494;28;20622;-77
2022/02/19 20:02:04;;;;;;;3.80;1.70;;;5.20;99.90;;;;;;5001599;28;20252;-78
2022/02/19 20:04:32;;;;;;;2.10;1.47;;;5.20;99.90;;;;;;5000047;28;20214;-78
2022/02/19 20:07:01;;;;;;;3.97;1.67;;;5.20;99.90;;;;;;4998205;28;20214;-78
2022/02/19 20:09:28;;;;;;;2.53;1.50;;;5.10;99.90;;;;;;4984694;28;20241;-78
2022/02/19 20:11:55;;;;;;;4.87;1.90;;;5.20;99.90;;;;;;4994476;28;20214;-78
2022/02/19 20:14:21;;;;;;;2.80;1.77;;;5.10;99.90;;;;;;4991004;28;20318;-78
2022/02/19 20:16:48;;;;;;;2.70;1.80;;;5.10;99.90;;;;;;5001059;28;20225;-78
2022/02/19 20:19:16;;;;;;;5.37;2.00;;;5.10;99.90;;;;;;4999251;28;20297;-78
2022/02/19 20:21:44;;;;;;;1.73;1.63;;;5.10;99.90;;;;;;5001227;28;20232;-78
2022/02/19 20:24:11;;;;;;;2.80;1.53;;;5.00;99.90;;;;;;4998444;28;20724;-79
2022/02/19 20:26:38;;;;;;;3.77;1.67;;;5.00;99.90;;;;;;5000428;28;20201;-78
2022/02/19 20:29:05;;;;;;;3.23;1.80;;;5.10;99.90;;;;;;4998195;28;20220;-79
2022/02/19 20:31:31;;;;;;;3.63;2.00;;;5.10;99.90;;;;;;5000264;28;20690;-78
2022/02/19 20:33:58;;;;;;;5.23;1.73;;;5.10;99.90;;;;;;4997319;28;20696;-78
2022/02/19 20:36:25;;;;;;;3.97;1.80;;;5.10;99.90;;;;;;4998506;28;20593;-80
2022/02/19 20:38:53;;;;;;;3.83;1.93;;;5.00;99.90;;;;;;5000054;28;20246;-79
2022/02/19 20:41:21;;;;;;;3.00;1.70;;;5.00;99.90;;;;;;4999666;28;20462;-78
2022/02/19 20:43:48;;;;;;;3.57;1.90;;;4.90;99.90;;;;;;4990925;28;20606;-78
2022/02/19 20:46:14;;;;;;;2.60;1.40;;;5.00;99.90;;;;;;5001376;28;20209;-78
2022/02/19 20:48:41;;;;;;;2.70;1.97;;;4.90;99.90;;;;;;5002400;28;20209;-79
2022/02/19 20:51:08;;;;;;;3.93;1.90;;;5.00;99.90;;;;;;5001407;28;20217;-79
2022/02/19 20:53:34;;;;;;;2.73;1.90;;;5.00;99.90;;;;;;4999892;28;20241;-80
2022/02/19 20:56:07;;;;;;;4.40;2.17;;;5.00;99.90;;;;;;5002399;28;20790;-79
2022/02/19 20:58:33;;;;;;;4.50;2.07;;;5.10;99.90;;;;;;4999763;28;20232;-79
2022/02/19 21:01:00;;;;;;;3.30;2.20;;;5.10;99.90;;;;;;4998720;28;20237;-79
2022/02/19 21:03:29;;;;;;;3.80;2.10;;;5.10;99.90;;;;;;4999602;28;20304;-79
2022/02/19 21:05:56;;;;;;;2.73;2.00;;;5.20;99.90;;;;;;4998109;28;20214;-79
2022/02/19 21:08:23;;;;;;;4.07;2.30;;;5.20;99.90;;;;;;4998850;28;20220;-79
2022/02/19 21:10:50;;;;;;;4.70;2.30;;;5.20;99.90;;;;;;5000084;28;20217;-80
2022/02/19 21:13:19;;;;;;;3.80;2.17;;;5.20;99.90;;;;;;4998027;28;20216;-79
2022/02/19 21:15:46;;;;;;;6.17;2.23;;;5.10;99.90;;;;;;5001075;28;20277;-77
2022/02/19 21:18:13;;;;;;;4.70;2.17;;;5.10;99.90;;;;;;4996418;28;20251;-80
2022/02/19 21:20:40;;;;;;;4.27;2.30;;;5.00;99.90;;;;;;5001041;28;20258;-78
2022/02/19 21:23:07;;;;;;;3.00;2.23;;;4.90;99.90;;;;;;4990039;28;20765;-78
2022/02/19 21:25:35;;;;;;;2.67;1.63;;;4.90;99.90;;;;;;4990367;28;20206;-78
2022/02/19 21:28:02;;;;;;;3.73;2.37;;;4.80;99.90;;;;;;4999228;28;20217;-78
2022/02/19 21:30:30;;;;;;;9.83;2.87;;;4.80;99.90;;;;;;4999098;28;20245;-78
2022/02/19 21:32:57;;;;;;;3.87;2.30;;;4.80;99.90;;;;;;4999596;28;20245;-78
2022/02/19 21:35:24;;;;;;;4.20;2.80;;;4.90;99.90;;;;;;4998851;28;20241;-78
2022/02/19 21:37:51;;;;;;;3.13;2.00;;;4.90;99.90;;;;;;4988373;28;20298;-79
2022/02/19 21:40:20;;;;;;;3.27;1.97;;;4.90;99.90;;;;;;4999692;28;20747;-78
2022/02/19 21:42:48;;;;;;;2.23;1.60;;;5.00;99.90;;;;;;4996292;28;20233;-77
2022/02/19 21:45:16;;;;;;;4.70;1.80;;;5.00;99.90;;;;;;4996218;28;20290;-78
2022/02/19 21:47:45;;;;;;;2.17;1.97;;;5.00;99.90;;;;;;5001809;28;20213;-78
2022/02/19 21:50:12;;;;;;;4.70;2.80;;;5.10;99.90;;;;;;5002253;28;20467;-78
2022/02/19 21:52:38;;;;;;;2.97;1.90;;;5.10;99.90;;;;;;5001976;28;20220;-78
2022/02/19 21:55:06;;;;;;;4.53;1.97;;;5.10;99.90;;;;;;5002172;28;20281;-77
2022/02/19 21:57:33;;;;;;;3.20;1.50;;;5.10;99.90;;;;;;5000149;28;20202;-79
2022/02/19 21:59:59;;;;;;;2.33;1.60;;;5.10;99.90;;;;;;4984724;28;20234;-80
2022/02/19 22:02:26;;;;;;;4.33;2.17;;;5.10;99.90;;;;;;5001901;28;20235;-79
2022/02/19 22:04:54;;;;;;;1.90;1.53;;;5.20;99.90;;;;;;5001684;28;20262;-80
2022/02/19 22:07:23;;;;;;;1.40;1.30;;;5.30;99.90;;;;;;5001498;28;20245;-80
2022/02/19 22:09:49;;;;;;;1.90;1.33;;;5.30;99.90;;;;;;5000704;28;20210;-80
2022/02/19 22:12:16;;;;;;;2.97;1.27;;;5.30;99.90;;;;;;5002051;28;20284;-80
2022/02/19 22:14:43;;;;;;;1.47;1.20;;;5.30;99.90;;;;;;4999506;28;20218;-77
2022/02/19 22:17:10;;;;;;;4.40;1.50;;;5.30;99.90;;;;;;5001679;28;20741;-78
2022/02/19 22:19:36;;;;;;;2.83;1.37;;;5.40;99.90;;;;;;5005143;28;20221;-80
2022/02/19 22:22:04;;;;;;;2.60;1.50;;;5.50;99.90;;;;;;5010815;28;20239;-81
2022/02/19 22:24:32;;;;;;;2.00;1.50;;;5.50;99.90;;;;;;5004094;28;20244;-80
2022/02/19 22:26:59;;;;;;;2.43;1.30;;;5.50;99.90;;;;;;5007648;28;20209;-80
2022/02/19 22:29:25;;;;;;;1.60;0.87;;;5.50;99.90;;;;;;5002076;28;20675;-80
2022/02/19 22:31:54;;;;;;;1.40;0.97;;;5.60;99.90;;;;;;5004558;28;20242;-79
2022/02/19 22:34:20;;;;;;;12.23;1.50;;;5.60;99.90;;;;;;5009220;28;20214;-80
2022/02/19 22:36:47;;;;;;;1.97;1.13;;;5.70;99.90;;;;;;5013605;28;20682;-80
2022/02/19 22:39:15;;;;;;;3.63;1.40;;;5.70;99.90;;;;;;5015494;28;20266;-80
2022/02/19 22:41:42;;;;;;;1.20;0.80;;;5.80;99.90;;;;;;5018634;28;20624;-80
2022/02/19 22:44:09;;;;;;;1.27;0.87;;;5.70;99.90;;;;;;5010178;28;20209;-80
2022/02/19 22:46:36;;;;;;;2.53;1.10;;;5.70;99.90;;;;;;5095044;28;20239;-79
2022/02/19 22:49:04;;;;;;;0.80;0.80;;;5.70;99.90;;;;;;5019459;28;20246;-79
2022/02/19 22:51:30;;;;;;;1.43;0.70;;;5.70;99.90;;;;;;5014018;28;20209;-79
2022/02/19 22:53:57;;;;;;;1.00;0.90;;;5.60;99.90;;;;;;5061409;28;20234;-79
2022/02/19 22:56:26;;;;;;;1.93;0.97;;;5.50;99.90;;;;;;5002053;28;20267;-79
2022/02/19 22:58:52;;;;;;;10.23;5.63;;;5.40;99.90;;;;;;5002564;28;20254;-79
2022/02/19 23:01:39;;;;;;;2.53;0.70;;;5.40;99.90;;;;;;5003139;28;20228;-79
2022/02/19 23:06:53;;;;;;;2.03;0.90;;;5.20;99.90;;;;;;4994667;28;20660;-79
2022/02/19 23:09:20;;;;;;;1.83;0.90;;;5.10;99.90;;;;;;4995854;28;20211;-79
2022/02/19 23:11:49;;;;;;;3.50;1.00;;;5.00;99.90;;;;;;5008142;28;20209;-81
2022/02/19 23:14:16;;;;;;;1.23;0.90;;;5.00;99.90;;;;;;5003021;28;20210;-79
2022/02/19 23:16:43;;;;;;;1.70;1.03;;;5.00;99.90;;;;;;5007954;28;20237;-79
2022/02/19 23:19:10;;;;;;;2.03;0.87;;;5.00;99.90;;;;;;5007447;28;20221;-79
2022/02/19 23:21:37;;;;;;;1.93;0.83;;;4.90;99.90;;;;;;5002914;28;20568;-79
2022/02/19 23:24:06;;;;;;;1.20;0.70;;;4.80;99.90;;;;;;5051965;28;20202;-79
2022/02/19 23:26:34;;;;;;;1.17;0.70;;;4.80;99.90;;;;;;5042487;28;20244;-79
2022/02/19 23:29:02;;;;;;;3.27;0.80;;;4.90;99.90;;;;;;5006343;28;20267;-79
2022/02/19 23:31:29;;;;;;;1.03;0.90;;;4.90;99.90;;;;;;5013700;28;20255;-79
2022/02/19 23:33:59;;;;;;;1.93;0.90;;;4.70;99.90;;;;;;5019092;28;20213;-79
2022/02/19 23:36:26;;;;;;;3.70;1.00;;;4.70;99.90;;;;;;5014159;28;20236;-79
2022/02/19 23:38:53;;;;;;;2.87;0.90;;;4.70;99.90;;;;;;5015123;28;20253;-79
2022/02/19 23:41:20;;;;;;;1.67;1.00;;;4.70;99.90;;;;;;5011740;28;20232;-79
2022/02/19 23:43:47;;;;;;;1.43;0.93;;;4.70;99.90;;;;;;5022140;28;20213;-80
2022/02/19 23:46:16;;;;;;;3.03;1.17;;;4.60;99.90;;;;;;5087874;28;20237;-79
2022/02/19 23:48:43;;;;;;;2.10;1.00;;;4.60;99.90;;;;;;5019868;28;20210;-79
2022/02/19 23:51:10;;;;;;;2.53;1.10;;;4.60;99.90;;;;;;5003028;28;20205;-79
2022/02/19 23:53:37;;;;;;;4.33;1.10;;;4.60;99.90;;;;;;5010676;28;20230;-78
2022/02/19 23:56:10;;;;;;;1.70;0.80;;;4.50;99.90;;;;;;5010339;28;20233;-79
2022/02/19 23:58:36;;;;;;;4.03;1.20;;;4.50;99.90;;;;;;5009784;28;20282;-82
